createdAt,value
2023-02-19T00:01:13.600Z,100494.00
2023-02-19T00:04:19.606Z,100502.25
2023-02-19T00:07:21.863Z,100498.38
2023-02-19T00:10:24.061Z,100494.47
2023-02-19T00:13:31.719Z,100488.69
2023-02-19T00:16:38.840Z,100498.66
2023-02-19T00:19:43.217Z,100501.44
2023-02-19T00:22:48.668Z,100497.09
2023-02-19T00:25:51.024Z,100491.34
2023-02-19T00:28:58.873Z,100489.69
2023-02-19T00:32:03.744Z,100486.78
2023-02-19T00:35:10.104Z,100488.91
2023-02-19T00:38:13.667Z,100485.41
2023-02-19T00:41:22.893Z,100487.59
2023-02-19T00:44:27.386Z,100493.09
2023-02-19T00:47:32.476Z,100490.19
2023-02-19T00:50:37.688Z,100495.19
2023-02-19T00:53:39.910Z,100490.03
2023-02-19T00:56:46.437Z,100496.91
2023-02-19T00:59:52.253Z,100492.72
2023-02-19T01:02:57.438Z,100492.00
2023-02-19T01:06:01.758Z,100484.44
2023-02-19T01:09:09.408Z,100491.06
2023-02-19T01:12:27.603Z,100489.13
2023-02-19T01:15:42.500Z,100477.94
2023-02-19T01:18:49.391Z,100494.03
2023-02-19T01:21:54.588Z,100486.66
2023-02-19T01:25:02.163Z,100486.44
2023-02-19T01:28:09.803Z,100480.53
2023-02-19T01:31:20.043Z,100466.00
2023-02-19T01:34:34.672Z,100473.03
2023-02-19T01:37:43.315Z,100468.53
2023-02-19T01:40:54.978Z,100479.06
2023-02-19T01:44:08.323Z,100475.88
2023-02-19T01:47:18.477Z,100488.53
2023-02-19T01:50:21.014Z,100478.09
2023-02-19T01:53:32.033Z,100473.72
2023-02-19T01:56:38.381Z,100482.47
2023-02-19T01:59:48.610Z,100480.91
2023-02-19T02:02:54.759Z,100477.22
2023-02-19T02:06:10.091Z,100466.44
2023-02-19T02:09:49.416Z,100465.38
2023-02-19T02:13:00.491Z,100465.25
2023-02-19T02:16:10.950Z,100451.56
2023-02-19T02:19:39.691Z,100444.44
2023-02-19T02:22:58.785Z,100423.59
2023-02-19T02:26:23.616Z,100414.34
2023-02-19T02:29:56.826Z,100428.03
2023-02-19T02:33:26.652Z,100437.50
2023-02-19T02:36:39.272Z,100434.63
2023-02-19T02:39:52.133Z,100430.94
2023-02-19T02:43:00.838Z,100431.72
2023-02-19T02:46:03.625Z,100438.84
2023-02-19T02:49:24.333Z,100444.97
2023-02-19T02:52:46.120Z,100443.56
2023-02-19T02:56:00.377Z,100445.41
2023-02-19T02:59:05.689Z,100458.06
2023-02-19T03:02:14.357Z,100456.47
2023-02-19T03:05:43.094Z,100457.63
2023-02-19T03:09:08.088Z,100457.13
2023-02-19T03:12:37.379Z,100450.25
2023-02-19T03:16:06.185Z,100457.25
2023-02-19T03:19:21.570Z,100460.41
2023-02-19T03:22:34.425Z,100454.38
2023-02-19T03:26:01.662Z,100465.50
2023-02-19T03:29:24.333Z,100469.13
2023-02-19T03:32:43.148Z,100471.03
2023-02-19T03:36:02.353Z,100468.81
2023-02-19T03:39:13.361Z,100455.16
2023-02-19T03:42:33.495Z,100459.84
2023-02-19T03:46:37.823Z,100462.69
2023-02-19T03:49:49.986Z,100477.22
2023-02-19T03:53:02.601Z,100485.97
2023-02-19T03:56:12.148Z,100484.44
2023-02-19T03:59:27.559Z,100474.56
2023-02-19T04:02:36.449Z,100477.75
2023-02-19T04:05:50.602Z,100468.88
2023-02-19T04:08:59.664Z,100470.78
2023-02-19T04:12:03.803Z,100469.81
2023-02-19T04:15:26.114Z,100475.78
2023-02-19T04:18:34.440Z,100464.19
2023-02-19T04:21:41.261Z,100462.66
2023-02-19T04:24:50.983Z,100459.56
2023-02-19T04:28:01.695Z,100465.59
2023-02-19T04:31:04.688Z,100462.22
2023-02-19T04:34:07.081Z,100467.16
2023-02-19T04:37:09.482Z,100465.00
2023-02-19T04:40:11.890Z,100465.28
2023-02-19T04:43:19.503Z,100467.72
2023-02-19T04:46:25.262Z,100467.25
2023-02-19T04:49:27.579Z,100463.09
2023-02-19T04:52:29.879Z,100473.19
2023-02-19T04:55:43.590Z,100477.63
2023-02-19T04:58:46.278Z,100461.06
2023-02-19T05:01:48.665Z,100451.25
2023-02-19T05:04:54.776Z,100446.78
2023-02-19T05:07:59.458Z,100448.06
2023-02-19T05:11:12.135Z,100444.91
2023-02-19T05:14:18.312Z,100441.72
2023-02-19T05:17:20.645Z,100448.09
2023-02-19T05:20:34.217Z,100448.06
2023-02-19T05:23:39.581Z,100453.25
2023-02-19T05:26:44.064Z,100456.38
2023-02-19T05:29:47.304Z,100459.19
2023-02-19T05:32:52.860Z,100469.13
2023-02-19T05:36:05.673Z,100474.16
2023-02-19T05:39:14.164Z,100468.91
2023-02-19T05:42:19.157Z,100456.88
2023-02-19T05:45:21.594Z,100453.69
2023-02-19T05:48:25.811Z,100462.69
2023-02-19T05:51:34.662Z,100465.75
2023-02-19T05:54:39.880Z,100466.81
2023-02-19T05:57:47.209Z,100473.06
2023-02-19T06:00:49.678Z,100467.56
2023-02-19T06:03:57.332Z,100459.00
2023-02-19T06:07:02.640Z,100463.78
2023-02-19T06:10:16.632Z,100468.50
2023-02-19T06:13:21.939Z,100472.69
2023-02-19T06:16:26.081Z,100467.38
2023-02-19T06:19:31.888Z,100463.91
2023-02-19T06:22:35.262Z,100445.38
2023-02-19T06:25:56.312Z,100444.75
2023-02-19T06:29:00.854Z,100448.34
2023-02-19T06:32:23.386Z,100448.81
2023-02-19T06:35:25.797Z,100442.91
2023-02-19T06:38:31.405Z,100444.72
2023-02-19T06:41:39.350Z,100433.44
2023-02-19T06:44:44.508Z,100436.84
2023-02-19T06:47:46.750Z,100437.63
2023-02-19T06:50:57.762Z,100447.88
2023-02-19T06:54:07.204Z,100464.03
2023-02-19T06:57:09.465Z,100449.00
2023-02-19T07:00:14.735Z,100447.38
2023-02-19T07:03:17.021Z,100448.94
2023-02-19T07:06:20.868Z,100458.91
2023-02-19T07:09:43.398Z,100457.53
2023-02-19T07:12:56.303Z,100457.09
2023-02-19T07:16:08.416Z,100459.72
2023-02-19T07:19:20.193Z,100452.13
2023-02-19T07:22:25.436Z,100420.88
2023-02-19T07:25:34.892Z,100450.50
2023-02-19T07:28:40.358Z,100434.88
2023-02-19T07:31:50.807Z,100431.16
2023-02-19T07:34:55.561Z,100435.81
2023-02-19T07:38:03.888Z,100435.75
2023-02-19T07:41:07.104Z,100433.28
2023-02-19T07:44:19.857Z,100416.84
2023-02-19T07:47:23.842Z,100432.25
2023-02-19T07:50:26.332Z,100430.72
2023-02-19T07:53:29.313Z,100451.56
2023-02-19T07:56:31.637Z,100441.81
2023-02-19T07:59:43.486Z,100446.72
2023-02-19T08:03:05.952Z,100450.59
2023-02-19T08:06:11.261Z,100459.88
2023-02-19T08:09:23.244Z,100466.50
2023-02-19T08:12:47.955Z,100462.56
2023-02-19T08:15:56.308Z,100471.72
2023-02-19T08:19:04.300Z,100473.19
2023-02-19T08:22:06.811Z,100472.41
2023-02-19T08:25:19.368Z,100481.03
2023-02-19T08:28:21.769Z,100478.06
2023-02-19T08:31:30.776Z,100476.75
2023-02-19T08:34:35.792Z,100486.81
2023-02-19T08:37:41.050Z,100480.50
2023-02-19T08:40:50.836Z,100483.72
2023-02-19T08:43:56.158Z,100461.63
2023-02-19T08:47:02.620Z,100456.34
2023-02-19T08:50:10.951Z,100470.06
2023-02-19T08:53:14.459Z,100452.91
2023-02-19T08:56:20.061Z,100455.03
2023-02-19T08:59:30.481Z,100463.75
2023-02-19T09:02:33.181Z,100468.44
2023-02-19T09:05:35.431Z,100467.88
2023-02-19T09:08:39.590Z,100462.13
2023-02-19T09:11:44.712Z,100465.84
2023-02-19T09:14:49.231Z,100469.78
2023-02-19T09:17:54.248Z,100461.31
2023-02-19T09:21:04.765Z,100469.81
2023-02-19T09:24:09.490Z,100471.69
2023-02-19T09:27:22.564Z,100478.47
2023-02-19T09:30:25.865Z,100472.72
2023-02-19T09:33:31.001Z,100475.50
2023-02-19T09:36:43.701Z,100470.03
2023-02-19T09:39:49.240Z,100449.34
2023-02-19T09:42:52.048Z,100433.91
2023-02-19T09:46:04.535Z,100455.25
2023-02-19T09:49:13.366Z,100451.84
2023-02-19T09:52:50.307Z,100450.75
2023-02-19T09:55:55.868Z,100435.41
2023-02-19T09:59:00.408Z,100432.75
2023-02-19T10:02:05.611Z,100431.53
2023-02-19T10:05:36.997Z,100403.88
2023-02-19T10:08:41.716Z,100404.66
2023-02-19T10:11:44.526Z,100385.13
2023-02-19T10:14:55.707Z,100376.09
2023-02-19T10:18:03.514Z,100387.19
2023-02-19T10:21:27.266Z,100377.97
2023-02-19T10:24:30.621Z,100379.72
2023-02-19T10:27:33.107Z,100363.91
2023-02-19T10:30:37.695Z,100354.72
2023-02-19T10:34:26.126Z,100332.19
2023-02-19T10:37:32.292Z,100320.16
2023-02-19T10:40:38.832Z,100323.72
2023-02-19T10:43:56.365Z,100292.88
2023-02-19T10:47:03.668Z,100299.69
2023-02-19T10:50:07.720Z,100299.63
2023-02-19T10:53:27.783Z,100295.53
2023-02-19T10:56:38.730Z,100290.66
2023-02-19T10:59:51.254Z,100283.50
2023-02-19T11:03:20.252Z,100312.75
2023-02-19T11:06:26.859Z,100270.56
2023-02-19T11:09:42.747Z,100277.75
2023-02-19T11:12:50.699Z,100259.47
2023-02-19T11:15:55.264Z,100266.84
2023-02-19T11:19:00.834Z,100259.34
2023-02-19T11:22:37.984Z,100282.56
2023-02-19T11:25:52.861Z,100273.84
2023-02-19T11:29:19.432Z,100262.59
2023-02-19T11:32:29.835Z,100247.41
2023-02-19T11:35:34.327Z,100249.44
2023-02-19T11:38:36.906Z,100241.81
2023-02-19T11:42:16.379Z,100235.84
2023-02-19T11:45:47.946Z,100231.94
2023-02-19T11:48:56.648Z,100230.38
2023-02-19T11:52:06.308Z,100230.22
2023-02-19T11:55:34.612Z,100235.22
2023-02-19T11:59:00.889Z,100239.16
2023-02-19T12:02:48.636Z,100227.59
2023-02-19T12:06:05.332Z,100230.25
2023-02-19T12:09:42.938Z,100215.72
2023-02-19T12:12:57.357Z,100221.19
2023-02-19T12:16:15.150Z,100216.34
2023-02-19T12:19:29.345Z,100213.53
2023-02-19T12:23:10.098Z,100205.59
2023-02-19T12:26:24.502Z,100209.03
2023-02-19T12:29:44.251Z,100196.19
2023-02-19T12:32:50.896Z,100202.28
2023-02-19T12:36:05.436Z,100206.66
2023-02-19T12:39:47.206Z,100219.50
2023-02-19T12:43:09.124Z,100221.03
2023-02-19T12:46:23.937Z,100229.47
2023-02-19T12:49:47.100Z,100218.69
2023-02-19T12:53:00.847Z,100232.63
2023-02-19T12:56:19.108Z,100224.00
2023-02-19T12:59:36.413Z,100238.47
2023-02-19T13:03:06.948Z,100247.31
2023-02-19T13:06:31.595Z,100258.91
2023-02-19T13:10:06.671Z,100244.72
2023-02-19T13:13:46.313Z,100245.34
2023-02-19T13:16:57.634Z,100243.50
2023-02-19T13:20:15.477Z,100259.97
2023-02-19T13:23:55.273Z,100257.34
2023-02-19T13:27:39.163Z,100280.28
2023-02-19T13:31:20.959Z,100261.94
2023-02-19T13:35:04.270Z,100255.63
2023-02-19T13:38:14.788Z,100255.63
2023-02-19T13:41:37.028Z,100267.31
2023-02-19T13:44:41.707Z,100273.78
2023-02-19T13:47:51.142Z,100271.78
2023-02-19T13:51:42.301Z,100283.31
2023-02-19T13:54:51.877Z,100271.06
2023-02-19T13:58:34.839Z,100273.22
2023-02-19T14:01:59.538Z,100289.56
2023-02-19T14:05:10.903Z,100300.34
2023-02-19T14:08:59.055Z,100305.47
2023-02-19T14:12:13.720Z,100314.25
2023-02-19T14:15:45.054Z,100326.69
2023-02-19T14:18:48.566Z,100327.75
2023-02-19T14:22:03.123Z,100325.38
2023-02-19T14:25:11.682Z,100331.66
2023-02-19T14:28:31.891Z,100340.16
2023-02-19T14:31:41.231Z,100348.72
2023-02-19T14:34:47.738Z,100352.34
2023-02-19T14:37:56.352Z,100367.06
2023-02-19T14:41:03.362Z,100367.13
2023-02-19T14:44:13.227Z,100387.25
2023-02-19T14:47:24.332Z,100376.47
2023-02-19T14:50:35.235Z,100370.94
2023-02-19T14:53:41.613Z,100372.13
2023-02-19T14:56:51.809Z,100377.84
2023-02-19T15:00:02.052Z,100382.69
2023-02-19T15:03:27.173Z,100390.72
2023-02-19T15:06:31.731Z,100386.78
2023-02-19T15:09:40.158Z,100372.81
2023-02-19T15:12:47.995Z,100385.81
2023-02-19T15:15:51.110Z,100397.16
2023-02-19T15:18:56.734Z,100375.59
2023-02-19T15:22:04.741Z,100390.06
2023-02-19T15:25:18.644Z,100384.63
2023-02-19T15:28:23.866Z,100384.41
2023-02-19T15:31:36.287Z,100372.56
2023-02-19T15:34:40.683Z,100352.66
2023-02-19T15:37:49.682Z,100340.06
2023-02-19T15:41:02.109Z,100352.69
2023-02-19T15:44:29.503Z,100353.75
2023-02-19T15:47:43.976Z,100362.56
2023-02-19T15:50:54.331Z,100356.00
2023-02-19T15:54:22.728Z,100376.81
2023-02-19T15:57:36.181Z,100358.69
2023-02-19T16:01:05.846Z,100394.25
2023-02-19T16:04:22.458Z,100400.03
2023-02-19T16:07:36.082Z,100410.59
2023-02-19T16:10:38.896Z,100401.72
2023-02-19T16:13:46.717Z,100406.41
2023-02-19T16:17:04.906Z,100415.97
2023-02-19T16:20:09.312Z,100427.50
2023-02-19T16:23:18.545Z,100422.22
2023-02-19T16:26:24.929Z,100428.53
2023-02-19T16:29:35.717Z,100416.31
2023-02-19T16:32:40.828Z,100448.00
2023-02-19T16:35:57.303Z,100451.75
2023-02-19T16:39:11.163Z,100460.53
2023-02-19T16:42:19.344Z,100454.31
2023-02-19T16:45:21.795Z,100455.94
2023-02-19T16:48:24.638Z,100450.16
2023-02-19T16:51:31.248Z,100464.91
2023-02-19T16:54:36.000Z,100462.81
2023-02-19T16:57:47.121Z,100452.84
2023-02-19T17:04:17.676Z,100483.88
2023-02-19T17:07:32.569Z,100486.75
2023-02-19T17:10:34.858Z,100501.47
2023-02-19T17:13:40.051Z,100499.88
2023-02-19T17:16:47.801Z,100495.94
2023-02-19T17:19:55.320Z,100487.28
2023-02-19T17:22:57.813Z,100481.22
2023-02-19T17:26:07.157Z,100500.94
2023-02-19T17:29:15.427Z,100499.63
2023-02-19T17:32:17.942Z,100496.44
2023-02-19T17:35:23.093Z,100508.28
2023-02-19T17:38:28.597Z,100513.78
2023-02-19T17:41:36.549Z,100523.50
2023-02-19T17:44:52.965Z,100535.06
2023-02-19T17:47:57.445Z,100529.25
2023-02-19T17:50:59.740Z,100533.19
2023-02-19T17:54:02.325Z,100529.50
2023-02-19T17:57:04.746Z,100531.38
2023-02-19T18:00:11.147Z,100532.69
2023-02-19T18:03:16.057Z,100544.25
2023-02-19T18:06:21.392Z,100542.69
2023-02-19T18:09:23.632Z,100558.44
2023-02-19T18:12:38.065Z,100556.06
2023-02-19T18:15:40.309Z,100557.84
2023-02-19T18:18:54.639Z,100579.66
2023-02-19T18:22:02.347Z,100587.47
2023-02-19T18:25:05.883Z,100598.84
2023-02-19T18:28:09.541Z,100604.16
2023-02-19T18:31:25.965Z,100615.50
2023-02-19T18:34:28.336Z,100609.88
2023-02-19T18:37:36.407Z,100640.09
2023-02-19T18:40:41.521Z,100642.72
2023-02-19T18:43:47.055Z,100649.81
2023-02-19T18:46:49.973Z,100648.66
2023-02-19T18:50:00.756Z,100667.47
2023-02-19T18:53:05.804Z,100677.47
2023-02-19T18:56:11.832Z,100695.84
2023-02-19T18:59:17.861Z,100700.56
2023-02-19T19:02:20.334Z,100690.66
2023-02-19T19:05:26.426Z,100702.47
2023-02-19T19:08:30.663Z,100686.69
2023-02-19T19:11:38.189Z,100706.91
2023-02-19T19:14:40.530Z,100691.94
2023-02-19T19:17:49.609Z,100682.44
2023-02-19T19:20:56.340Z,100669.81
2023-02-19T19:24:07.531Z,100673.22
2023-02-19T19:27:15.340Z,100670.56
2023-02-19T19:30:22.989Z,100667.91
2023-02-19T19:33:33.726Z,100677.91
2023-02-19T19:36:36.067Z,100678.16
2023-02-19T19:39:38.300Z,100678.72
2023-02-19T19:42:44.630Z,100681.63
2023-02-19T19:45:47.084Z,100695.28
2023-02-19T19:48:52.869Z,100684.91
2023-02-19T19:52:05.064Z,100695.75
2023-02-19T19:55:08.074Z,100706.28
2023-02-19T19:58:20.957Z,100700.53
2023-02-19T20:01:25.814Z,100711.34
2023-02-19T20:04:34.561Z,100724.47
2023-02-19T20:07:39.907Z,100744.72
2023-02-19T20:10:53.987Z,100756.84
2023-02-19T20:14:03.396Z,100774.47
2023-02-19T20:17:09.898Z,100789.13
2023-02-19T20:20:22.863Z,100792.94
2023-02-19T20:23:28.926Z,100804.47
2023-02-19T20:26:36.080Z,100809.84
2023-02-19T20:29:40.392Z,100811.72
2023-02-19T20:32:45.647Z,100834.50
2023-02-19T20:35:51.132Z,100840.50
2023-02-19T20:38:56.347Z,100837.00
2023-02-19T20:42:01.472Z,100854.69
2023-02-19T20:45:06.951Z,100865.88
2023-02-19T20:48:21.755Z,100885.88
2023-02-19T20:51:29.386Z,100879.28
2023-02-19T20:54:36.380Z,100879.47
2023-02-19T20:57:41.074Z,100875.72
2023-02-19T21:00:45.953Z,100890.91
2023-02-19T21:03:48.258Z,100878.63
2023-02-19T21:06:53.642Z,100896.59
2023-02-19T21:10:04.210Z,100905.34
2023-02-19T21:13:14.201Z,100902.34
2023-02-19T21:16:19.786Z,100918.28
2023-02-19T21:19:24.205Z,100916.31
2023-02-19T21:22:34.725Z,100923.19
2023-02-19T21:25:42.286Z,100928.50
2023-02-19T21:28:52.508Z,100938.50
2023-02-19T21:31:56.803Z,100937.63
2023-02-19T21:35:02.134Z,100940.06
2023-02-19T21:38:08.120Z,100935.97
2023-02-19T21:41:14.553Z,100944.28
2023-02-19T21:44:22.327Z,100924.41
2023-02-19T21:47:30.102Z,100944.16
2023-02-19T21:50:35.088Z,100937.47
2023-02-19T21:53:37.456Z,100941.69
2023-02-19T21:56:42.699Z,100940.22
2023-02-19T21:59:56.858Z,100947.59
2023-02-19T22:03:02.225Z,100946.03
2023-02-19T22:06:07.551Z,100949.00
2023-02-19T22:09:17.453Z,100947.09
2023-02-19T22:12:23.949Z,100954.28
2023-02-19T22:15:30.454Z,100949.84
2023-02-19T22:18:38.102Z,100946.38
2023-02-19T22:21:47.677Z,100951.31
2023-02-19T22:24:52.570Z,100955.03
2023-02-19T22:27:59.437Z,100953.91
2023-02-19T22:31:08.542Z,100958.72
2023-02-19T22:34:19.891Z,100943.34
2023-02-19T22:37:30.079Z,100944.72
2023-02-19T22:40:35.328Z,100955.56
2023-02-19T22:43:43.097Z,100967.34
2023-02-19T22:46:51.483Z,100967.59
2023-02-19T22:49:53.735Z,100971.81
2023-02-19T22:52:56.087Z,100977.03
2023-02-19T22:56:03.958Z,100968.63
2023-02-19T22:59:14.386Z,100985.56
2023-02-19T23:02:20.639Z,101002.34
2023-02-19T23:05:24.510Z,100998.16
2023-02-19T23:08:40.134Z,100995.78
2023-02-19T23:11:45.245Z,101011.47
2023-02-19T23:14:47.610Z,101024.63
2023-02-19T23:17:52.657Z,101020.31
2023-02-19T23:20:59.059Z,101022.03
2023-02-19T23:24:04.354Z,101027.94
2023-02-19T23:27:12.998Z,101027.47
2023-02-19T23:30:20.950Z,101034.06
2023-02-19T23:33:32.602Z,101043.34
2023-02-19T23:36:41.114Z,101054.84
2023-02-19T23:39:48.673Z,101048.56
2023-02-19T23:42:56.724Z,101044.03
2023-02-19T23:46:00.269Z,101058.44
2023-02-19T23:49:05.658Z,101052.09
2023-02-19T23:52:21.862Z,101065.91
2023-02-19T23:55:27.265Z,101053.31
2023-02-19T23:58:32.186Z,101074.09
